createdAt,value
2022-11-22T00:01:22.726Z,-0.75
2022-11-22T00:03:51.529Z,-0.81
2022-11-22T00:06:20.542Z,-0.77
2022-11-22T00:08:52.040Z,-0.80
2022-11-22T00:11:19.927Z,-0.82
2022-11-22T00:13:47.950Z,-0.77
2022-11-22T00:16:16.444Z,-0.80
2022-11-22T00:18:44.653Z,-0.83
2022-11-22T00:21:12.047Z,-0.79
2022-11-22T00:23:39.968Z,-0.75
2022-11-22T00:26:12.331Z,-0.73
2022-11-22T00:28:40.331Z,-0.77
2022-11-22T00:31:08.872Z,-0.73
2022-11-22T00:33:36.328Z,-0.76
2022-11-22T00:36:03.943Z,-0.70
2022-11-22T00:38:32.026Z,-0.75
2022-11-22T00:41:00.270Z,-0.67
2022-11-22T00:43:29.145Z,-0.71
2022-11-22T00:45:58.667Z,-0.74
2022-11-22T00:48:26.833Z,-0.68
2022-11-22T00:50:54.478Z,-0.67
2022-11-22T00:53:23.898Z,-0.64
2022-11-22T00:55:51.817Z,-0.60
2022-11-22T00:58:21.320Z,-0.64
2022-11-22T01:00:56.284Z,-0.55
2022-11-22T01:03:24.780Z,-0.59
2022-11-22T01:05:53.795Z,-0.52
2022-11-22T01:08:21.514Z,-0.42
2022-11-22T01:10:49.400Z,-0.47
2022-11-22T01:13:17.304Z,-0.51
2022-11-22T01:15:45.835Z,-0.48
2022-11-22T01:18:13.506Z,-0.46
2022-11-22T01:20:41.624Z,-0.47
2022-11-22T01:23:10.166Z,-0.59
2022-11-22T01:25:38.134Z,-0.63
2022-11-22T01:28:06.041Z,-0.59
2022-11-22T01:30:34.231Z,-0.53
2022-11-22T01:33:02.980Z,-0.52
2022-11-22T01:35:30.822Z,-0.49
2022-11-22T01:37:58.500Z,-0.57
2022-11-22T01:40:28.161Z,-0.53
2022-11-22T01:43:00.589Z,-0.55
2022-11-22T01:45:34.549Z,-0.50
2022-11-22T01:48:08.661Z,-0.49
2022-11-22T01:50:40.602Z,-0.45
2022-11-22T01:53:14.847Z,-0.52
2022-11-22T01:55:43.634Z,-0.44
2022-11-22T01:58:16.961Z,-0.48
2022-11-22T02:00:52.554Z,-0.45
2022-11-22T02:03:22.971Z,-0.48
2022-11-22T02:05:52.792Z,-0.44
2022-11-22T02:08:33.671Z,-0.45
2022-11-22T02:11:05.219Z,-0.38
2022-11-22T02:13:38.466Z,-0.40
2022-11-22T02:16:08.039Z,-0.35
2022-11-22T02:18:38.820Z,-0.36
2022-11-22T02:21:07.679Z,-0.44
2022-11-22T02:23:46.080Z,-0.36
2022-11-22T02:26:15.333Z,-0.30
2022-11-22T02:28:43.735Z,-0.35
2022-11-22T02:31:44.954Z,-0.23
2022-11-22T02:34:13.332Z,-0.30
2022-11-22T02:36:53.261Z,-0.32
2022-11-22T02:39:27.839Z,-0.28
2022-11-22T02:41:57.848Z,-0.27
2022-11-22T02:44:26.119Z,-0.26
2022-11-22T02:46:56.186Z,-0.25
2022-11-22T02:49:25.745Z,-0.20
2022-11-22T02:51:53.687Z,-0.25
2022-11-22T02:54:21.964Z,-0.27
2022-11-22T02:56:49.978Z,-0.22
2022-11-22T02:59:18.111Z,-0.23
2022-11-22T03:01:48.899Z,-0.21
2022-11-22T03:04:25.321Z,-0.22
2022-11-22T03:09:35.865Z,-0.13
2022-11-22T03:12:04.642Z,-0.09
2022-11-22T03:14:33.399Z,-0.10
2022-11-22T03:17:00.874Z,-0.08
2022-11-22T03:19:28.857Z,-0.05
2022-11-22T03:21:55.971Z,-0.06
2022-11-22T03:24:23.722Z,-0.04
2022-11-22T03:26:51.600Z,-0.02
2022-11-22T03:29:21.860Z,0.04
2022-11-22T03:31:50.531Z,0.06
2022-11-22T03:34:18.542Z,0.03
2022-11-22T03:36:45.878Z,0.04
2022-11-22T03:39:13.687Z,0.05
2022-11-22T03:41:40.829Z,0.05
2022-11-22T03:44:07.998Z,0.04
2022-11-22T03:46:35.490Z,0.07
2022-11-22T03:49:03.002Z,0.06
2022-11-22T03:51:30.609Z,0.17
2022-11-22T03:53:58.207Z,0.14
2022-11-22T03:56:25.379Z,0.11
2022-11-22T03:58:52.770Z,0.16
2022-11-22T04:01:20.722Z,0.12
2022-11-22T04:03:48.100Z,0.19
2022-11-22T04:06:15.706Z,0.19
2022-11-22T04:08:44.716Z,0.22
2022-11-22T04:11:13.185Z,0.31
2022-11-22T04:14:00.404Z,0.29
2022-11-22T04:16:28.431Z,0.20
2022-11-22T04:18:55.683Z,0.32
2022-11-22T04:21:34.977Z,0.34
2022-11-22T04:24:28.973Z,0.30
2022-11-22T04:26:57.010Z,0.29
2022-11-22T04:29:24.901Z,0.33
2022-11-22T04:32:10.917Z,0.35
2022-11-22T04:34:38.539Z,0.34
2022-11-22T04:37:06.743Z,0.41
2022-11-22T04:39:34.080Z,0.43
2022-11-22T04:42:19.570Z,0.42
2022-11-22T04:44:47.175Z,0.48
2022-11-22T04:47:35.121Z,0.54
2022-11-22T04:50:04.216Z,0.50
2022-11-22T04:52:49.726Z,0.54
2022-11-22T04:55:16.708Z,0.55
2022-11-22T04:57:43.791Z,0.56
2022-11-22T05:00:11.458Z,0.55
2022-11-22T05:02:38.980Z,0.53
2022-11-22T05:05:06.550Z,0.54
2022-11-22T05:07:34.519Z,0.56
2022-11-22T05:10:01.949Z,0.55
2022-11-22T05:12:30.513Z,0.54
2022-11-22T05:14:57.741Z,0.57
2022-11-22T05:17:26.309Z,0.46
2022-11-22T05:19:55.515Z,0.50
2022-11-22T05:22:42.993Z,0.50
2022-11-22T05:25:10.231Z,0.53
2022-11-22T05:27:37.553Z,0.63
2022-11-22T05:30:07.519Z,0.65
2022-11-22T05:32:38.597Z,0.67
2022-11-22T05:35:06.636Z,0.72
2022-11-22T05:40:55.458Z,0.75
2022-11-22T05:43:26.428Z,0.78
2022-11-22T05:45:55.901Z,0.73
2022-11-22T05:48:24.931Z,0.74
2022-11-22T05:50:53.634Z,0.76
2022-11-22T05:53:23.378Z,0.76
2022-11-22T05:55:51.984Z,0.80
2022-11-22T05:58:20.959Z,0.86
2022-11-22T06:00:48.941Z,0.76
2022-11-22T06:03:16.439Z,0.80
2022-11-22T06:05:51.291Z,0.87
2022-11-22T06:08:20.929Z,0.85
2022-11-22T06:10:49.138Z,0.90
2022-11-22T06:13:16.926Z,0.92
2022-11-22T06:15:45.570Z,1.01
2022-11-22T06:18:13.668Z,1.02
2022-11-22T06:20:44.502Z,1.06
2022-11-22T06:23:13.040Z,1.08
2022-11-22T06:25:42.576Z,1.12
2022-11-22T06:28:11.394Z,1.14
2022-11-22T06:30:42.084Z,1.12
2022-11-22T06:33:10.519Z,1.19
2022-11-22T06:35:42.175Z,1.19
2022-11-22T06:38:11.167Z,1.24
2022-11-22T06:40:38.946Z,1.19
2022-11-22T06:43:06.772Z,1.26
2022-11-22T06:45:36.307Z,1.29
2022-11-22T06:48:06.724Z,1.33
2022-11-22T06:50:35.848Z,1.35
2022-11-22T06:53:03.907Z,1.40
2022-11-22T06:55:49.624Z,1.39
2022-11-22T07:01:51.958Z,1.40
2022-11-22T07:04:20.661Z,1.36
2022-11-22T07:06:50.468Z,1.37
2022-11-22T07:09:18.442Z,1.43
2022-11-22T07:11:46.971Z,1.53
2022-11-22T07:14:14.889Z,1.43
2022-11-22T07:16:47.529Z,1.49
2022-11-22T07:19:16.005Z,1.51
2022-11-22T07:21:43.879Z,1.54
2022-11-22T07:24:12.123Z,1.51
2022-11-22T07:26:41.032Z,1.54
2022-11-22T07:29:09.815Z,1.58
2022-11-22T07:31:37.420Z,1.54
2022-11-22T07:34:07.689Z,1.57
2022-11-22T07:36:35.967Z,1.61
2022-11-22T07:39:04.079Z,1.57
2022-11-22T07:41:32.936Z,1.43
2022-11-22T07:44:00.380Z,1.54
2022-11-22T07:46:32.273Z,1.49
2022-11-22T07:49:00.676Z,1.42
2022-11-22T07:51:28.467Z,1.43
2022-11-22T07:53:56.760Z,1.44
2022-11-22T07:56:24.498Z,1.39
2022-11-22T07:58:52.493Z,1.46
2022-11-22T08:01:20.700Z,1.43
2022-11-22T08:03:47.989Z,1.42
2022-11-22T08:06:16.692Z,1.42
2022-11-22T08:08:44.219Z,1.47
2022-11-22T08:11:12.387Z,1.51
2022-11-22T08:13:40.088Z,1.51
2022-11-22T08:16:09.922Z,1.53
2022-11-22T08:18:38.335Z,1.53
2022-11-22T08:21:10.931Z,1.56
2022-11-22T08:23:38.474Z,1.49
2022-11-22T08:26:06.588Z,1.57
2022-11-22T08:28:34.073Z,1.63
2022-11-22T08:31:10.674Z,1.60
2022-11-22T08:33:38.372Z,1.65
2022-11-22T08:36:05.942Z,1.60
2022-11-22T08:38:33.608Z,1.66
2022-11-22T08:41:00.887Z,1.61
2022-11-22T08:43:32.953Z,1.68
2022-11-22T08:46:03.011Z,1.65
2022-11-22T08:48:32.650Z,1.63
2022-11-22T08:51:04.766Z,1.65
2022-11-22T08:53:39.834Z,1.74
2022-11-22T08:56:09.915Z,1.79
2022-11-22T08:58:37.495Z,1.75
2022-11-22T09:01:18.714Z,1.75
2022-11-22T09:03:47.430Z,1.72
2022-11-22T09:12:00.903Z,1.77
2022-11-22T09:14:29.523Z,1.69
2022-11-22T09:16:57.345Z,1.74
2022-11-22T09:19:25.278Z,1.74
2022-11-22T09:21:52.932Z,1.79
2022-11-22T09:24:20.269Z,1.82
2022-11-22T09:26:47.806Z,1.73
2022-11-22T09:29:16.048Z,1.71
2022-11-22T09:31:43.716Z,1.82
2022-11-22T09:34:10.711Z,1.74
2022-11-22T09:36:37.811Z,1.71
2022-11-22T09:39:04.883Z,1.71
2022-11-22T09:41:52.866Z,1.67
2022-11-22T09:44:28.533Z,1.69
2022-11-22T09:47:04.469Z,1.72
2022-11-22T09:49:43.569Z,1.65
2022-11-22T09:52:17.638Z,1.57
2022-11-22T09:54:52.381Z,1.64
2022-11-22T09:57:25.395Z,1.67
2022-11-22T10:00:02.876Z,1.72
2022-11-22T10:02:59.410Z,1.66
2022-11-22T10:05:35.352Z,1.73
2022-11-22T10:08:34.119Z,1.77
2022-11-22T10:11:04.464Z,1.74
2022-11-22T10:13:38.741Z,1.82
2022-11-22T10:16:26.386Z,1.75
2022-11-22T10:19:25.034Z,1.72
2022-11-22T10:21:52.904Z,1.83
2022-11-22T10:24:20.653Z,1.77
2022-11-22T10:26:47.952Z,1.85
2022-11-22T10:29:27.095Z,1.77
2022-11-22T10:32:15.115Z,1.85
2022-11-22T10:35:22.592Z,1.87
2022-11-22T10:38:22.600Z,1.82
2022-11-22T10:41:17.603Z,1.87
2022-11-22T10:44:02.836Z,1.76
2022-11-22T10:46:59.770Z,1.79
2022-11-22T10:50:03.560Z,1.81
2022-11-22T10:52:44.495Z,1.83
2022-11-22T10:55:37.868Z,1.79
2022-11-22T10:58:12.010Z,1.94
2022-11-22T11:00:44.719Z,1.93
2022-11-22T11:03:28.803Z,1.95
2022-11-22T11:11:52.015Z,2.02
2022-11-22T11:14:28.200Z,2.01
2022-11-22T11:17:00.352Z,2.00
2022-11-22T11:19:33.128Z,2.02
2022-11-22T11:22:50.297Z,1.98
2022-11-22T11:25:30.820Z,2.10
2022-11-22T11:28:03.368Z,2.14
2022-11-22T11:30:39.481Z,2.16
2022-11-22T11:33:21.312Z,2.06
2022-11-22T11:35:48.677Z,2.03
2022-11-22T11:38:30.889Z,2.11
2022-11-22T11:41:01.119Z,2.16
2022-11-22T11:43:30.109Z,2.11
2022-11-22T11:46:25.152Z,2.19
2022-11-22T11:49:08.841Z,2.10
2022-11-22T11:52:00.358Z,2.07
2022-11-22T11:54:35.429Z,2.16
2022-11-22T11:57:07.891Z,2.23
2022-11-22T11:59:38.003Z,2.19
2022-11-22T12:02:14.013Z,2.13
2022-11-22T12:05:03.908Z,2.19
2022-11-22T12:07:34.899Z,2.13
2022-11-22T12:10:04.897Z,2.16
2022-11-22T12:13:04.150Z,2.11
2022-11-22T12:15:42.570Z,2.21
2022-11-22T12:18:33.461Z,2.19
2022-11-22T12:21:17.976Z,2.18
2022-11-22T12:24:13.269Z,2.18
2022-11-22T12:26:44.382Z,2.23
2022-11-22T12:29:14.451Z,2.18
2022-11-22T12:31:50.166Z,2.20
2022-11-22T12:34:29.035Z,2.29
2022-11-22T12:37:01.737Z,2.24
2022-11-22T12:39:31.006Z,2.20
2022-11-22T12:42:11.100Z,2.26
2022-11-22T12:44:45.594Z,2.25
2022-11-22T12:47:20.884Z,2.19
2022-11-22T12:49:56.953Z,2.45
2022-11-22T12:52:27.310Z,2.34
2022-11-22T12:55:14.701Z,2.35
2022-11-22T12:57:52.469Z,2.24
2022-11-22T13:00:22.463Z,2.36
2022-11-22T13:02:58.955Z,2.32
2022-11-22T13:06:01.138Z,2.31
2022-11-22T13:08:34.984Z,2.37
2022-11-22T13:11:29.657Z,2.36
2022-11-22T13:14:04.023Z,2.34
2022-11-22T13:16:32.539Z,2.43
2022-11-22T13:19:04.349Z,2.40
2022-11-22T13:21:47.792Z,2.47
2022-11-22T13:24:40.344Z,2.51
2022-11-22T13:27:21.063Z,2.47
2022-11-22T13:29:53.763Z,2.51
2022-11-22T13:32:24.706Z,2.41
2022-11-22T13:35:02.831Z,2.44
2022-11-22T13:37:32.785Z,2.51
2022-11-22T13:40:31.481Z,2.47
2022-11-22T13:43:19.633Z,2.44
2022-11-22T13:45:58.307Z,2.44
2022-11-22T13:48:40.688Z,2.42
2022-11-22T13:51:12.996Z,2.44
2022-11-22T13:53:46.005Z,2.46
2022-11-22T13:56:16.196Z,2.47
2022-11-22T13:58:53.422Z,2.52
2022-11-22T14:01:49.358Z,2.52
2022-11-22T14:04:18.889Z,2.46
2022-11-22T14:06:54.570Z,2.50
2022-11-22T14:09:34.168Z,2.61
2022-11-22T14:12:10.940Z,2.53
2022-11-22T14:14:42.164Z,2.61
2022-11-22T14:17:40.255Z,2.63
2022-11-22T14:20:28.775Z,2.56
2022-11-22T14:23:08.601Z,2.58
2022-11-22T14:26:05.126Z,2.62
2022-11-22T14:28:58.192Z,2.64
2022-11-22T14:31:34.875Z,2.59
2022-11-22T14:34:34.550Z,2.61
2022-11-22T14:37:10.553Z,2.56
2022-11-22T14:39:55.739Z,2.50
2022-11-22T14:42:47.424Z,2.59
2022-11-22T14:45:31.488Z,2.57
2022-11-22T14:48:13.813Z,2.54
2022-11-22T14:50:46.531Z,2.56
2022-11-22T14:53:32.606Z,2.57
2022-11-22T14:56:13.004Z,2.60
2022-11-22T14:58:55.590Z,2.49
2022-11-22T15:01:47.041Z,2.52
2022-11-22T15:09:20.358Z,2.55
2022-11-22T15:09:22.472Z,2.52
2022-11-22T15:11:01.171Z,2.48
2022-11-22T15:13:40.081Z,2.47
2022-11-22T15:57:44.859Z,2.34
2022-11-22T16:00:28.982Z,2.38
2022-11-22T16:03:06.890Z,2.33
2022-11-22T16:06:06.253Z,2.43
2022-11-22T16:08:29.410Z,2.37
2022-11-22T16:11:00.176Z,2.36
2022-11-22T16:13:33.179Z,2.33
2022-11-22T16:16:14.118Z,2.32
2022-11-22T16:18:43.656Z,2.32
2022-11-22T16:21:13.583Z,2.25
2022-11-22T16:23:42.157Z,2.19
2022-11-22T16:26:19.433Z,2.20
2022-11-22T16:28:48.339Z,2.15
2022-11-22T16:31:23.302Z,2.13
2022-11-22T16:33:52.047Z,2.09
2022-11-22T16:36:21.919Z,2.12
2022-11-22T16:38:50.205Z,2.13
2022-11-22T16:41:23.632Z,2.11
2022-11-22T16:43:57.041Z,2.09
2022-11-22T16:46:23.828Z,2.20
2022-11-22T16:48:51.272Z,2.20
2022-11-22T16:51:30.931Z,2.20
2022-11-22T16:53:59.980Z,2.20
2022-11-22T16:56:30.151Z,2.13
2022-11-22T16:58:58.298Z,2.12
2022-11-22T17:01:31.064Z,2.23
2022-11-22T17:03:59.792Z,2.21
2022-11-22T17:06:32.399Z,2.27
2022-11-22T17:09:00.822Z,2.31
2022-11-22T17:11:31.771Z,2.28
2022-11-22T17:14:01.635Z,2.27
2022-11-22T17:16:29.378Z,2.28
2022-11-22T17:18:58.232Z,2.19
2022-11-22T17:21:34.487Z,2.29
2022-11-22T17:24:07.701Z,2.16
2022-11-22T17:26:34.961Z,2.13
2022-11-22T17:29:02.534Z,2.19
2022-11-22T17:31:29.742Z,2.18
2022-11-22T17:34:00.823Z,2.18
2022-11-22T17:36:46.946Z,2.14
2022-11-22T17:39:16.936Z,2.18
2022-11-22T17:41:51.221Z,2.11
2022-11-22T17:44:18.727Z,2.09
2022-11-22T17:46:47.379Z,2.04
2022-11-22T17:49:16.656Z,2.00
2022-11-22T17:51:44.346Z,2.03
2022-11-22T17:54:19.100Z,2.06
2022-11-22T17:56:47.290Z,2.09
2022-11-22T18:02:08.375Z,2.13
2022-11-22T18:04:35.574Z,2.01
2022-11-22T18:07:03.204Z,1.95
2022-11-22T18:09:32.690Z,1.97
2022-11-22T18:12:00.391Z,1.98
2022-11-22T18:14:28.452Z,2.03
2022-11-22T18:16:55.430Z,2.17
2022-11-22T18:19:24.455Z,2.10
2022-11-22T18:21:53.079Z,2.14
2022-11-22T18:24:21.586Z,2.06
2022-11-22T18:26:53.740Z,2.03
2022-11-22T18:32:10.180Z,2.07
2022-11-22T18:34:39.592Z,2.18
2022-11-22T18:37:07.265Z,2.19
2022-11-22T18:39:40.195Z,2.22
2022-11-22T18:42:15.523Z,2.28
2022-11-22T18:44:44.244Z,2.25
2022-11-22T18:47:11.678Z,2.19
2022-11-22T18:49:40.251Z,2.19
2022-11-22T18:52:10.702Z,2.11
2022-11-22T18:54:40.584Z,2.19
2022-11-22T18:57:08.382Z,2.26
2022-11-22T18:59:36.241Z,2.08
2022-11-22T19:02:05.177Z,2.11
2022-11-22T19:04:34.703Z,2.01
2022-11-22T19:07:01.971Z,2.20
2022-11-22T19:09:30.436Z,2.17
2022-11-22T19:11:59.600Z,2.18
2022-11-22T19:14:29.956Z,2.17
2022-11-22T19:16:57.869Z,2.22
2022-11-22T19:19:25.554Z,2.23
2022-11-22T19:23:05.005Z,2.25
2022-11-22T19:25:32.673Z,2.23
2022-11-22T19:28:05.819Z,2.28
2022-11-22T19:30:33.995Z,2.23
2022-11-22T19:33:01.953Z,2.22
2022-11-22T19:35:31.812Z,2.21
2022-11-22T19:37:59.249Z,2.26
2022-11-22T19:40:27.450Z,2.19
2022-11-22T19:42:54.476Z,2.26
2022-11-22T19:45:57.256Z,2.12
2022-11-22T19:48:23.205Z,2.10
2022-11-22T19:50:51.001Z,2.30
2022-11-22T19:53:18.530Z,2.26
2022-11-22T19:55:46.669Z,2.20
2022-11-22T19:58:14.224Z,2.20
2022-11-22T20:00:44.728Z,2.20
2022-11-22T20:03:14.317Z,2.17
2022-11-22T20:05:42.460Z,2.18
2022-11-22T20:08:10.285Z,2.22
2022-11-22T20:10:48.757Z,2.17
2022-11-22T20:13:16.213Z,2.21
2022-11-22T20:15:43.884Z,2.10
2022-11-22T20:18:11.368Z,2.17
2022-11-22T20:20:40.223Z,2.16
2022-11-22T20:23:07.673Z,2.22
2022-11-22T20:25:34.944Z,2.18
2022-11-22T20:28:02.098Z,2.17
2022-11-22T20:30:29.837Z,2.15
2022-11-22T20:32:57.156Z,2.16
2022-11-22T20:35:26.077Z,2.23
2022-11-22T20:37:54.870Z,2.28
2022-11-22T20:40:22.681Z,2.11
2022-11-22T20:42:51.215Z,2.12
2022-11-22T20:45:19.725Z,2.16
2022-11-22T20:47:47.240Z,2.27
2022-11-22T20:50:17.521Z,2.25
2022-11-22T20:52:45.832Z,2.21
2022-11-22T20:55:15.434Z,2.27
2022-11-22T20:57:43.347Z,2.31
2022-11-22T21:00:12.892Z,2.23
2022-11-22T21:02:40.461Z,2.29
2022-11-22T21:05:10.093Z,2.28
2022-11-22T21:07:37.150Z,2.30
2022-11-22T21:10:04.732Z,2.29
2022-11-22T21:12:32.182Z,2.28
2022-11-22T21:15:00.181Z,2.26
2022-11-22T21:17:45.646Z,2.33
2022-11-22T21:20:20.369Z,2.28
2022-11-22T21:22:55.003Z,2.30
2022-11-22T21:25:22.875Z,2.34
2022-11-22T21:27:50.376Z,2.38
2022-11-22T21:30:18.679Z,2.38
2022-11-22T21:32:46.416Z,2.28
2022-11-22T21:35:13.852Z,2.37
2022-11-22T21:37:45.422Z,2.38
2022-11-22T21:40:14.590Z,2.36
2022-11-22T21:42:42.238Z,2.44
2022-11-22T21:45:11.452Z,2.36
2022-11-22T21:47:39.216Z,2.37
2022-11-22T21:50:11.485Z,2.43
2022-11-22T21:52:40.427Z,2.53
2022-11-22T21:55:07.969Z,2.45
2022-11-22T21:57:35.519Z,2.48
2022-11-22T22:00:07.468Z,2.46
2022-11-22T22:02:35.722Z,2.52
2022-11-22T22:05:05.027Z,2.54
2022-11-22T22:07:52.057Z,2.49
2022-11-22T22:10:21.029Z,2.55
2022-11-22T22:12:52.682Z,2.58
2022-11-22T22:15:21.048Z,2.54
2022-11-22T22:17:50.272Z,2.55
2022-11-22T22:20:21.571Z,2.53
2022-11-22T22:22:56.832Z,2.61
2022-11-22T22:25:26.065Z,2.56
2022-11-22T22:27:57.089Z,2.58
2022-11-22T22:30:25.457Z,2.43
2022-11-22T22:32:52.705Z,2.59
2022-11-22T22:35:21.337Z,2.64
2022-11-22T22:37:50.145Z,2.62
2022-11-22T22:40:18.846Z,2.56
2022-11-22T22:42:50.261Z,2.59
2022-11-22T22:45:17.992Z,2.56
2022-11-22T22:47:45.836Z,2.64
2022-11-22T22:50:13.639Z,2.71
2022-11-22T22:52:41.928Z,2.61
2022-11-22T22:55:10.070Z,2.59
2022-11-22T22:57:37.745Z,2.63
2022-11-22T23:00:05.983Z,2.66
2022-11-22T23:02:35.262Z,2.61
2022-11-22T23:05:02.863Z,2.64
2022-11-22T23:07:32.393Z,2.68
2022-11-22T23:10:00.510Z,2.63
2022-11-22T23:12:31.826Z,2.64
2022-11-22T23:15:00.083Z,2.62
2022-11-22T23:17:28.769Z,2.67
2022-11-22T23:19:56.641Z,2.64
2022-11-22T23:22:26.129Z,2.62
2022-11-22T23:24:53.806Z,2.64
2022-11-22T23:27:21.508Z,2.68
2022-11-22T23:29:50.396Z,2.68
2022-11-22T23:32:18.165Z,2.72
2022-11-22T23:34:46.230Z,2.65
2022-11-22T23:37:14.085Z,2.73
2022-11-22T23:39:42.085Z,2.67
2022-11-22T23:42:10.537Z,2.67
2022-11-22T23:44:39.419Z,2.75
2022-11-22T23:47:07.355Z,2.69
2022-11-22T23:49:34.803Z,2.70
2022-11-22T23:52:02.322Z,2.68
2022-11-22T23:54:30.251Z,2.71
2022-11-22T23:56:58.137Z,2.67
2022-11-22T23:59:26.125Z,2.72
